Airfield :
LOGIN :

Register | Disclaimer

   EN    FR    IT 

 










Legend :    VFR   Marginal VFR   IFR   Intensive IFR   Very Intensive IFR
Visi :
Ceiling :
>= 8 km
>= 3000ft
5 to 8 km
1000 to 3000 ft
1500m to 5 km
500 to 1000 ft
800 to 1500m
200 to 500 ft
< 800m
< 200 ft
Symbols :   Thunderstorms  Fog  Heavy snow  Heavy precipitations  Wind > 20 kt
SIGMETs :     Misc.  Thunderstorms  Icing  Turbulence  Mountain Waves  Volcanic Ashes







- Airport Elevation : 1036 ft
- IATA code : ERF


EDDE - Erfurt

CURRENT METAR :
  • 161220Z 16004KT 9999 -SHRA SCT020 SCT040CB 18/14 Q1021 TEMPO SHRA

EXPIRED METARs :
  • 161150Z VRB02KT 9999 SCT020 FEW050CB 19/12 Q1021 TEMPO SHRA
  • 161120Z 03005KT 340V070 9999 SCT020 FEW033CB 19/13 Q1021 TEMPO SHRA
  • 161050Z 02005KT 340V070 9999 FEW020 19/13 Q1021 TEMPO SHRA
  • 161020Z 29005KT 250V320 9999 FEW030 19/13 Q1021 NOSIG
  • 160950Z 29005KT 250V330 9999 FEW030 18/13 Q1021 NOSIG

TAF TAF EDDE
Valid from the 16 at 12:00 until the 17 at 12:00 UTC


161100Z 1612/1712 27005KT CAVOK
PROB30
TEMPO 1612/1618 31015G25KT TSRA BKN030CB
BECMG 1619/1622 21004KT
TEMPO 1702/1706 2500 BCFG
BECMG 1706/1709 08005KT
No reported NOTAMs for that airfield.



MET'MAP, your aeronautical weather chart ! - Copyright ORBIFLY December 2007 - Disclaimer

ORBIFLY MET'MAP TEAM :

Programming & Development : Alexandra Zaïnal
Concept & Development : Baudouin d'Aumeries
Co-Development & Prog : Marc-Olivier Méhu
Technical & hardware support : Manuel Goepfert

Contact : metmap@orbifly.com




SOURCES & CREDITS :

   NOAA